EPWA/WAW METAR and TAF weather

Enter ICAO airport designator
Station Type Date Time Source
EPWA METAR 2019/06/19 00:30 UTC NOAA

EPWA 190030Z 09005KT CAVOK 20/13 Q1017 NOSIG


Station Type Date Time Source
EPWA Decoded METAR 2019/06/19 00:30 UTC NOAA

Warszawa-Okecie, Poland (EPWA) 52-10N 020-58E 107M
Jun 18, 2019 - 08:30 PM EDT / 2019.06.19 0030 UTC
Wind: from the E (090 degrees) at 6 MPH (5 KT):0
Visibility: greater than 7 mile(s):0
Temperature: 68 F (20 C)
Dew Point: 55 F (13 C)
Relative Humidity: 64%
Pressure (altimeter): 30.03 in. Hg (1017 hPa)
ob: EPWA 190030Z 09005KT CAVOK 20/13 Q1017 NOSIG
cycle: 0

Station Type Date Time Source
EPWA TAF 2019/06/18 21:35 UTC NOAA

TAF EPWA 182030Z 1821/1921 07005KT CAVOK PROB40
TEMPO 1914/1920 4000 TSRA BKN030CB

Example: see airport list